Time;durP1;ratioP1;P1;durP2;ratioP2;P2;SDS_P1;SDS_P2;PMS_P1;PMS_P2;Temp;Humidity;BMP_temperature;BMP_pressure;BME280_temperature;BME280_humidity;BME280_pressure;Samples;Min_cycle;Max_cycle;Signal;HPM_P1;HPM_P2
2022/07/13 00:01:47;;;;;;;8.63;3.63;;;19.70;99.90;;;;;;5055914;28;20119;-82
2022/07/13 00:04:13;;;;;;;6.18;4.03;;;19.70;99.90;;;;;;5052163;28;20420;-81
2022/07/13 00:06:39;;;;;;;3.83;3.40;;;19.60;99.90;;;;;;5071443;28;20048;-82
2022/07/13 00:09:04;;;;;;;8.73;4.00;;;19.60;99.90;;;;;;5054304;28;20039;-82
2022/07/13 00:11:30;;;;;;;4.45;3.95;;;19.70;99.90;;;;;;5069092;28;20434;-82
2022/07/13 00:13:56;;;;;;;4.43;3.47;;;19.60;99.90;;;;;;5049171;28;20033;-81
2022/07/13 00:16:22;;;;;;;6.32;4.10;;;19.60;99.90;;;;;;5066863;28;20489;-81
2022/07/13 00:18:48;;;;;;;5.65;3.80;;;19.60;99.90;;;;;;5071742;28;20036;-81
2022/07/13 00:21:14;;;;;;;6.70;4.28;;;19.60;99.90;;;;;;5065651;28;20638;-81
2022/07/13 00:23:39;;;;;;;5.15;4.05;;;19.60;99.90;;;;;;5079474;28;20195;-81
2022/07/13 00:26:05;;;;;;;6.22;4.28;;;19.70;99.90;;;;;;5071221;28;20043;-81
2022/07/13 00:28:32;;;;;;;5.97;3.92;;;19.70;99.90;;;;;;5069611;28;20493;-81
2022/07/13 00:30:57;;;;;;;8.95;4.72;;;19.70;99.90;;;;;;5074486;28;20118;-81
2022/07/13 00:33:23;;;;;;;6.20;4.45;;;19.70;99.90;;;;;;5094499;28;20115;-81
2022/07/13 00:35:49;;;;;;;6.68;4.40;;;19.70;99.90;;;;;;5072636;28;20036;-81
2022/07/13 00:38:14;;;;;;;5.13;4.10;;;19.80;99.90;;;;;;5071518;28;20527;-81
2022/07/13 00:40:40;;;;;;;8.48;4.75;;;19.80;99.90;;;;;;5072640;28;20035;-81
2022/07/13 00:43:06;;;;;;;8.23;4.65;;;19.90;99.90;;;;;;5062153;28;20538;-81
2022/07/13 00:45:32;;;;;;;5.75;4.25;;;19.90;99.90;;;;;;5061092;28;20039;-81
2022/07/13 00:47:58;;;;;;;5.97;4.78;;;20.00;99.90;;;;;;5061608;28;20031;-81
2022/07/13 00:50:24;;;;;;;6.57;4.35;;;20.00;99.90;;;;;;5093615;28;20154;-81
2022/07/13 00:52:50;;;;;;;6.38;4.55;;;20.00;99.90;;;;;;5072911;28;20209;-81
2022/07/13 00:55:16;;;;;;;7.20;4.45;;;20.00;99.90;;;;;;5094908;28;20544;-81
2022/07/13 00:57:41;;;;;;;5.95;4.25;;;20.00;99.90;;;;;;5086594;28;20501;-80
2022/07/13 01:00:10;;;;;;;5.63;4.22;;;20.00;99.90;;;;;;5058924;28;20040;-81
2022/07/13 01:02:41;;;;;;;7.95;4.60;;;20.00;99.90;;;;;;5086531;28;20077;-81
2022/07/13 01:05:09;;;;;;;6.10;4.63;;;20.10;99.90;;;;;;5077605;28;20077;-81
2022/07/13 01:07:35;;;;;;;5.65;4.60;;;20.10;99.90;;;;;;5085976;28;20122;-81
2022/07/13 01:10:05;;;;;;;6.57;4.50;;;20.10;99.90;;;;;;5055103;28;20150;-81
2022/07/13 01:12:31;;;;;;;5.20;4.70;;;20.10;99.90;;;;;;5067950;28;20032;-81
2022/07/13 01:14:58;;;;;;;7.00;5.00;;;20.20;99.90;;;;;;5074348;28;20473;-82
2022/07/13 01:17:25;;;;;;;6.78;4.68;;;20.20;99.90;;;;;;5087713;28;20393;-81
2022/07/13 01:19:51;;;;;;;6.10;4.60;;;20.30;99.90;;;;;;5091375;28;20042;-80
2022/07/13 01:22:21;;;;;;;6.82;4.78;;;20.30;99.90;;;;;;5044904;28;20035;-80
2022/07/13 01:24:49;;;;;;;5.78;4.40;;;20.30;99.90;;;;;;5092740;28;20070;-80
2022/07/13 01:27:15;;;;;;;6.32;4.40;;;20.30;99.90;;;;;;5077122;28;20084;-80
2022/07/13 01:29:41;;;;;;;10.10;5.07;;;20.40;99.90;;;;;;5098782;27;20139;-81
2022/07/13 01:32:07;;;;;;;5.28;4.68;;;20.30;99.90;;;;;;5060151;28;20106;-81
2022/07/13 01:34:33;;;;;;;5.22;4.75;;;20.30;99.90;;;;;;5077614;28;20028;-81
2022/07/13 01:37:00;;;;;;;8.48;4.93;;;20.30;99.90;;;;;;5085232;28;20127;-81
2022/07/13 01:39:26;;;;;;;6.10;4.93;;;20.30;99.90;;;;;;5056931;28;20050;-81
2022/07/13 01:41:52;;;;;;;6.00;5.20;;;20.30;99.90;;;;;;5074352;28;20062;-81
2022/07/13 01:44:18;;;;;;;5.50;4.93;;;20.30;99.90;;;;;;5076847;28;20051;-81
2022/07/13 01:46:44;;;;;;;5.80;5.18;;;20.30;99.90;;;;;;5067197;28;20482;-81
2022/07/13 01:49:10;;;;;;;7.32;5.40;;;20.30;99.90;;;;;;5057440;28;20094;-81
2022/07/13 01:51:36;;;;;;;6.45;4.90;;;20.30;99.90;;;;;;5056052;28;20054;-81
2022/07/13 01:54:02;;;;;;;5.80;5.25;;;20.30;99.90;;;;;;5047038;28;20489;-81
2022/07/13 01:56:27;;;;;;;7.90;5.70;;;20.30;99.90;;;;;;5083464;28;20378;-80
2022/07/13 01:58:53;;;;;;;6.38;5.10;;;20.30;99.90;;;;;;5071969;28;20097;-80
2022/07/13 02:01:19;;;;;;;6.20;5.50;;;20.30;99.90;;;;;;5073706;28;20044;-80
2022/07/13 02:03:45;;;;;;;6.25;5.30;;;20.30;99.90;;;;;;5057029;28;20409;-80
2022/07/13 02:06:11;;;;;;;6.18;5.57;;;20.30;99.90;;;;;;5092099;28;20104;-80
2022/07/13 02:08:37;;;;;;;10.15;6.03;;;20.30;99.90;;;;;;5070313;28;20481;-80
2022/07/13 02:11:03;;;;;;;8.60;6.20;;;20.30;99.90;;;;;;5074124;28;20044;-80
2022/07/13 02:13:29;;;;;;;6.80;6.10;;;20.30;99.90;;;;;;5076431;28;20024;-80
2022/07/13 02:15:54;;;;;;;8.57;6.75;;;20.30;99.90;;;;;;5079794;27;20107;-80
2022/07/13 02:18:20;;;;;;;7.88;6.32;;;20.20;99.90;;;;;;5073816;28;20398;-80
2022/07/13 02:20:46;;;;;;;7.22;6.32;;;20.30;99.90;;;;;;5054450;28;20498;-80
2022/07/13 02:23:12;;;;;;;7.60;6.28;;;20.30;99.90;;;;;;5054142;28;20036;-81
2022/07/13 02:25:38;;;;;;;7.75;6.10;;;20.20;99.90;;;;;;5093003;28;20045;-80
2022/07/13 02:28:06;;;;;;;7.43;6.15;;;20.20;99.90;;;;;;5074145;28;20115;-80
2022/07/13 02:30:32;;;;;;;9.02;5.88;;;20.20;99.90;;;;;;5071938;28;20417;-80
2022/07/13 02:32:58;;;;;;;7.07;5.93;;;20.10;99.90;;;;;;5074318;28;20063;-80
2022/07/13 02:35:24;;;;;;;7.85;6.85;;;20.10;99.90;;;;;;5071945;28;20086;-81
2022/07/13 02:37:50;;;;;;;9.85;6.70;;;20.10;99.90;;;;;;5075764;28;20062;-81
2022/07/13 02:40:16;;;;;;;8.27;6.70;;;20.10;99.90;;;;;;5073429;28;20032;-81
2022/07/13 02:42:43;;;;;;;8.45;7.65;;;20.10;99.90;;;;;;5047944;28;20043;-80
2022/07/13 02:45:09;;;;;;;8.70;7.50;;;20.10;99.90;;;;;;5088028;28;20055;-80
2022/07/13 02:47:34;;;;;;;9.35;7.90;;;20.10;99.90;;;;;;5092319;28;20043;-81
2022/07/13 02:50:00;;;;;;;10.63;8.25;;;20.10;99.90;;;;;;5067404;28;20115;-80
2022/07/13 02:52:26;;;;;;;9.30;7.43;;;20.20;99.90;;;;;;5083207;28;20101;-80
2022/07/13 02:54:52;;;;;;;12.98;7.93;;;20.20;99.90;;;;;;5065743;28;20035;-80
2022/07/13 02:57:18;;;;;;;10.35;7.30;;;20.20;99.90;;;;;;5074493;28;20108;-80
2022/07/13 02:59:43;;;;;;;8.55;7.03;;;20.20;99.90;;;;;;5046013;27;20043;-80
2022/07/13 03:02:09;;;;;;;10.40;7.18;;;20.20;99.90;;;;;;5085726;28;20032;-80
2022/07/13 03:04:35;;;;;;;8.85;7.60;;;20.20;99.90;;;;;;5042792;28;20081;-80
2022/07/13 03:07:02;;;;;;;13.05;7.63;;;20.20;99.90;;;;;;5087763;28;20047;-80
2022/07/13 03:09:28;;;;;;;9.02;8.13;;;20.20;99.90;;;;;;5083812;28;20110;-79
2022/07/13 03:11:54;;;;;;;9.75;7.53;;;20.20;99.90;;;;;;5066751;28;20049;-79
2022/07/13 03:14:20;;;;;;;9.68;7.75;;;20.20;99.90;;;;;;5038992;28;20031;-80
2022/07/13 03:16:46;;;;;;;9.73;7.78;;;20.30;99.90;;;;;;5072677;28;20039;-80
2022/07/13 03:19:12;;;;;;;8.50;7.60;;;20.20;99.90;;;;;;5052381;28;20043;-79
2022/07/13 03:21:37;;;;;;;10.95;7.75;;;20.30;99.90;;;;;;5071797;28;20028;-79
2022/07/13 03:24:03;;;;;;;10.38;7.18;;;20.30;99.90;;;;;;5080877;28;20038;-79
2022/07/13 03:26:29;;;;;;;11.80;7.70;;;20.30;99.90;;;;;;5058764;28;20062;-79
2022/07/13 03:28:55;;;;;;;8.98;7.60;;;20.40;99.90;;;;;;5076208;28;20112;-81
2022/07/13 03:31:21;;;;;;;12.68;8.27;;;20.30;99.90;;;;;;5080229;28;20063;-80
2022/07/13 03:33:49;;;;;;;9.93;8.00;;;20.40;99.90;;;;;;5070034;28;20091;-79
2022/07/13 03:36:15;;;;;;;9.98;8.07;;;20.40;99.90;;;;;;5085618;28;20283;-80
2022/07/13 03:38:41;;;;;;;11.00;7.22;;;20.40;99.90;;;;;;5070684;28;20040;-79
2022/07/13 03:41:07;;;;;;;10.48;7.38;;;20.40;99.90;;;;;;5075540;28;20085;-80
2022/07/13 03:43:33;;;;;;;8.68;7.60;;;20.30;99.90;;;;;;5059808;28;20035;-80
2022/07/13 03:45:59;;;;;;;10.07;6.75;;;20.30;99.90;;;;;;5072298;28;20080;-80
2022/07/13 03:48:24;;;;;;;7.50;6.80;;;20.30;99.90;;;;;;5096682;28;20043;-80
2022/07/13 03:50:50;;;;;;;9.77;7.13;;;20.30;99.90;;;;;;5074885;28;20058;-80
2022/07/13 03:53:16;;;;;;;8.23;6.78;;;20.30;99.90;;;;;;5074018;28;20518;-80
2022/07/13 03:55:42;;;;;;;8.20;7.28;;;20.30;99.90;;;;;;5048670;28;20180;-80
2022/07/13 03:58:10;;;;;;;7.20;6.40;;;20.30;99.90;;;;;;5065067;28;20481;-80
2022/07/13 04:00:37;;;;;;;6.82;6.13;;;20.20;99.90;;;;;;5074243;28;20035;-80
2022/07/13 04:03:03;;;;;;;10.68;6.53;;;20.20;99.90;;;;;;5072388;28;20040;-80
2022/07/13 04:05:29;;;;;;;8.93;6.68;;;20.20;99.90;;;;;;5091459;28;20053;-79
2022/07/13 04:07:54;;;;;;;6.07;5.47;;;20.20;99.90;;;;;;5057973;28;20488;-79
2022/07/13 04:10:21;;;;;;;8.25;6.18;;;20.20;99.90;;;;;;5061190;28;20044;-79
2022/07/13 04:12:48;;;;;;;6.07;5.47;;;20.20;99.90;;;;;;5067726;28;20507;-80
2022/07/13 04:15:14;;;;;;;6.65;5.97;;;20.20;99.90;;;;;;5082531;28;20569;-81
2022/07/13 04:17:40;;;;;;;6.57;5.45;;;20.20;99.90;;;;;;5072015;28;20492;-80
2022/07/13 04:20:07;;;;;;;6.65;4.72;;;20.20;99.90;;;;;;5069209;28;20394;-79
2022/07/13 04:22:33;;;;;;;6.05;5.32;;;20.20;99.90;;;;;;5069096;28;20557;-80
2022/07/13 04:24:59;;;;;;;6.45;5.03;;;20.30;99.90;;;;;;5057236;28;20035;-79
2022/07/13 04:27:24;;;;;;;6.72;5.43;;;20.30;99.90;;;;;;5070926;28;20235;-79
2022/07/13 04:29:50;;;;;;;8.10;5.13;;;20.30;99.90;;;;;;5055713;28;20044;-78
2022/07/13 04:32:16;;;;;;;5.90;4.90;;;20.40;99.90;;;;;;5053524;28;20116;-79
2022/07/13 04:34:42;;;;;;;5.35;4.72;;;20.40;99.90;;;;;;5052757;28;20148;-79
2022/07/13 04:37:08;;;;;;;8.10;4.97;;;20.40;99.90;;;;;;5065199;28;20038;-79
2022/07/13 04:39:33;;;;;;;6.25;4.68;;;20.40;99.90;;;;;;5073403;28;20125;-79
2022/07/13 04:41:59;;;;;;;5.20;4.65;;;20.40;99.90;;;;;;5059117;28;20065;-78
2022/07/13 04:44:28;;;;;;;5.93;4.93;;;20.40;99.90;;;;;;5087676;28;20497;-79
2022/07/13 04:46:54;;;;;;;6.63;4.63;;;20.40;99.90;;;;;;5088690;28;20031;-79
2022/07/13 04:49:20;;;;;;;6.53;4.65;;;20.40;99.90;;;;;;5074759;28;20044;-79
2022/07/13 04:51:53;;;;;;;6.95;4.80;;;20.40;99.90;;;;;;5074341;28;20027;-79
2022/07/13 04:54:19;;;;;;;;;;;20.40;99.90;;;;;;5089776;28;20387;-79
2022/07/13 04:56:44;;;;;;;4.72;4.07;;;20.40;99.90;;;;;;5057996;28;19916;-79
2022/07/13 04:59:11;;;;;;;4.75;4.25;;;20.40;99.90;;;;;;5054930;28;20038;-79
2022/07/13 05:01:37;;;;;;;5.38;4.75;;;20.40;99.90;;;;;;5083930;28;20046;-80
2022/07/13 05:04:03;;;;;;;6.72;4.65;;;20.50;99.90;;;;;;5060903;28;20501;-79
2022/07/13 05:06:30;;;;;;;5.18;4.22;;;20.40;99.90;;;;;;5068337;28;20082;-79
2022/07/13 05:08:56;;;;;;;8.60;5.32;;;20.50;99.90;;;;;;5055926;28;20570;-79
2022/07/13 05:11:21;;;;;;;5.47;4.53;;;20.50;99.90;;;;;;5057605;28;20048;-80
2022/07/13 05:13:47;;;;;;;6.85;4.82;;;20.50;99.90;;;;;;5077272;28;20032;-79
2022/07/13 05:16:13;;;;;;;8.68;4.35;;;20.50;99.90;;;;;;5075271;28;20043;-80
2022/07/13 05:18:38;;;;;;;4.90;3.90;;;20.50;99.90;;;;;;5063926;28;20105;-80
2022/07/13 05:21:04;;;;;;;6.07;3.67;;;20.60;99.90;;;;;;5090596;28;20035;-80
2022/07/13 05:23:31;;;;;;;4.85;4.20;;;20.60;99.90;;;;;;5073593;28;20530;-80
2022/07/13 05:25:58;;;;;;;5.85;3.80;;;20.70;99.90;;;;;;5072523;28;20076;-79
2022/07/13 05:28:23;;;;;;;5.90;3.60;;;20.70;99.90;;;;;;5072729;28;20032;-79
2022/07/13 05:30:50;;;;;;;6.97;3.70;;;20.70;99.90;;;;;;5058861;27;20455;-78
2022/07/13 05:33:18;;;;;;;5.10;3.70;;;20.70;99.90;;;;;;5044481;28;20040;-79
2022/07/13 05:35:44;;;;;;;7.70;4.65;;;20.70;99.90;;;;;;5087537;28;20458;-79
2022/07/13 05:38:10;;;;;;;5.13;3.58;;;20.80;99.90;;;;;;5077256;28;20122;-78
2022/07/13 05:40:36;;;;;;;5.35;3.50;;;20.80;99.90;;;;;;5097876;28;20039;-80
2022/07/13 05:43:01;;;;;;;5.85;3.53;;;20.80;99.90;;;;;;5070804;28;20054;-81
2022/07/13 05:45:27;;;;;;;3.83;3.50;;;20.80;99.90;;;;;;5070134;28;20142;-80
2022/07/13 05:47:53;;;;;;;4.57;3.88;;;20.90;99.90;;;;;;5071067;28;20063;-79
2022/07/13 05:50:18;;;;;;;5.13;4.00;;;20.90;99.90;;;;;;5057387;28;20513;-80
2022/07/13 05:52:44;;;;;;;6.63;4.15;;;20.90;99.90;;;;;;5060750;28;20028;-80
2022/07/13 05:55:11;;;;;;;6.07;4.03;;;20.90;99.90;;;;;;5076945;28;21108;-78
2022/07/13 05:57:37;;;;;;;6.28;4.70;;;20.90;99.90;;;;;;5089525;28;20374;-79
2022/07/13 06:00:10;;;;;;;5.93;4.68;;;21.00;99.90;;;;;;5093208;28;20027;-79
2022/07/13 06:02:36;;;;;;;6.75;4.45;;;21.00;99.90;;;;;;5070761;28;20048;-78
2022/07/13 06:05:02;;;;;;;9.80;4.50;;;21.00;99.90;;;;;;5087087;28;20046;-78
2022/07/13 06:07:28;;;;;;;6.53;4.65;;;21.10;99.90;;;;;;5091114;28;20039;-78
2022/07/13 06:09:58;;;;;;;8.85;4.70;;;21.10;99.90;;;;;;5051018;28;20028;-79
2022/07/13 06:12:24;;;;;;;6.55;4.40;;;21.10;99.90;;;;;;5058541;28;20067;-78
2022/07/13 06:14:52;;;;;;;5.03;4.53;;;21.10;99.90;;;;;;5074600;28;20027;-78
2022/07/13 06:17:18;;;;;;;5.63;4.07;;;21.20;99.90;;;;;;5073340;28;20036;-78
2022/07/13 06:19:44;;;;;;;4.38;3.85;;;21.20;99.90;;;;;;5044559;28;20458;-79
2022/07/13 06:22:10;;;;;;;6.18;4.53;;;21.20;99.90;;;;;;5066772;28;20072;-79
2022/07/13 06:24:36;;;;;;;5.60;3.92;;;21.30;99.90;;;;;;5069461;28;20383;-80
2022/07/13 06:27:01;;;;;;;6.13;3.97;;;21.40;99.90;;;;;;5057037;28;20122;-79
2022/07/13 06:29:27;;;;;;;6.53;4.32;;;21.40;99.90;;;;;;5075013;28;20570;-80
2022/07/13 06:31:53;;;;;;;4.57;4.15;;;21.40;99.90;;;;;;5089003;28;20048;-80
2022/07/13 06:34:19;;;;;;;6.88;4.13;;;21.50;99.90;;;;;;5058628;28;20057;-79
2022/07/13 06:36:45;;;;;;;6.13;4.97;;;21.50;99.90;;;;;;5059651;28;20031;-80
2022/07/13 06:39:11;;;;;;;5.85;4.93;;;21.50;99.90;;;;;;5086581;28;20028;-80
2022/07/13 06:41:36;;;;;;;6.32;4.97;;;21.60;99.90;;;;;;5078422;28;20043;-80
2022/07/13 06:44:02;;;;;;;7.25;4.72;;;21.60;99.90;;;;;;5076687;28;20480;-80
2022/07/13 06:46:28;;;;;;;5.30;4.50;;;21.60;99.90;;;;;;5091495;28;20036;-80
2022/07/13 06:48:54;;;;;;;8.90;5.35;;;21.70;99.90;;;;;;5075202;28;20383;-80
2022/07/13 06:51:20;;;;;;;10.15;4.95;;;21.70;99.90;;;;;;5059379;28;20040;-79
2022/07/13 06:53:45;;;;;;;5.15;4.60;;;21.70;99.90;;;;;;5075804;28;20500;-79
2022/07/13 06:56:11;;;;;;;6.35;4.65;;;21.80;99.90;;;;;;5072849;28;20028;-80
2022/07/13 06:58:37;;;;;;;7.07;4.50;;;21.80;99.90;;;;;;5088186;28;20046;-79
2022/07/13 07:01:03;;;;;;;5.38;4.57;;;21.90;99.90;;;;;;5059172;28;20489;-79
2022/07/13 07:03:29;;;;;;;4.80;4.30;;;21.90;99.90;;;;;;5088250;28;20114;-79
2022/07/13 07:05:55;;;;;;;4.78;4.00;;;21.90;99.90;;;;;;5062033;28;20174;-79
2022/07/13 07:08:21;;;;;;;7.18;4.18;;;22.00;99.90;;;;;;5078726;28;20040;-80
2022/07/13 07:10:47;;;;;;;5.65;4.28;;;22.00;99.90;;;;;;5077202;28;20039;-79
2022/07/13 07:13:14;;;;;;;8.40;4.43;;;22.00;99.90;;;;;;5087358;28;20028;-80
2022/07/13 07:15:39;;;;;;;4.82;4.25;;;22.00;99.90;;;;;;5082892;28;20039;-80
2022/07/13 07:18:06;;;;;;;5.13;4.63;;;22.10;99.90;;;;;;5082713;28;20032;-79
2022/07/13 07:20:33;;;;;;;6.95;4.28;;;22.10;99.90;;;;;;5078170;28;20085;-79
2022/07/13 07:22:58;;;;;;;6.55;4.40;;;22.30;99.90;;;;;;5073456;28;20046;-79
2022/07/13 07:25:24;;;;;;;8.93;4.47;;;22.40;99.90;;;;;;5062524;28;20039;-79
2022/07/13 07:27:50;;;;;;;8.15;4.60;;;22.60;99.90;;;;;;5066358;28;20447;-79
2022/07/13 07:30:16;;;;;;;5.78;4.95;;;22.80;99.90;;;;;;5042355;28;20441;-79
2022/07/13 07:32:42;;;;;;;6.55;4.88;;;23.00;99.90;;;;;;5080890;28;20044;-80
2022/07/13 07:35:08;;;;;;;8.88;5.20;;;23.10;99.90;;;;;;5071312;28;20059;-80
2022/07/13 07:37:35;;;;;;;6.43;4.80;;;23.20;99.90;;;;;;5057391;28;20086;-80
2022/07/13 07:40:01;;;;;;;5.50;4.93;;;23.20;99.90;;;;;;5062481;28;20032;-80
2022/07/13 07:42:29;;;;;;;6.95;4.65;;;23.20;99.90;;;;;;5062186;28;20043;-80
2022/07/13 07:44:56;;;;;;;6.53;5.38;;;23.20;99.90;;;;;;5068646;28;20044;-80
2022/07/13 07:47:25;;;;;;;5.72;5.18;;;23.10;99.90;;;;;;5071798;28;20119;-80
2022/07/13 07:49:52;;;;;;;6.95;5.13;;;23.10;99.90;;;;;;5071613;28;20063;-80
2022/07/13 07:52:18;;;;;;;5.72;4.95;;;23.00;99.90;;;;;;5071830;28;20048;-80
2022/07/13 07:54:43;;;;;;;8.05;5.43;;;23.00;99.90;;;;;;5052271;28;20509;-79
2022/07/13 07:57:09;;;;;;;6.75;5.18;;;23.00;99.90;;;;;;5032968;28;20430;-80
2022/07/13 07:59:35;;;;;;;6.85;5.10;;;23.00;99.90;;;;;;5039406;28;20124;-80
2022/07/13 08:02:01;;;;;;;6.22;5.30;;;23.00;99.90;;;;;;5072187;28;20032;-80
2022/07/13 08:04:27;;;;;;;5.65;5.00;;;23.00;99.90;;;;;;5052412;28;20044;-80
2022/07/13 08:06:53;;;;;;;6.10;5.00;;;23.00;99.90;;;;;;5078428;28;20399;-80
2022/07/13 08:09:18;;;;;;;7.68;5.22;;;23.00;99.90;;;;;;5084565;28;20520;-80
2022/07/13 08:11:44;;;;;;;8.70;5.88;;;23.10;99.90;;;;;;5062463;28;20028;-80
2022/07/13 08:14:10;;;;;;;10.40;5.55;;;23.20;99.90;;;;;;5067662;28;20598;-80
2022/07/13 08:16:35;;;;;;;7.68;5.40;;;23.20;99.90;;;;;;5055018;28;20039;-80
2022/07/13 08:19:01;;;;;;;8.65;5.60;;;23.30;99.90;;;;;;5060291;28;20028;-80
2022/07/13 08:21:27;;;;;;;10.98;5.82;;;23.40;99.90;;;;;;5070025;28;20050;-81
2022/07/13 08:23:53;;;;;;;10.50;5.68;;;23.40;99.90;;;;;;5062071;28;20035;-80
2022/07/13 08:26:24;;;;;;;9.35;6.53;;;23.40;99.90;;;;;;5080665;28;20044;-80
2022/07/13 08:28:51;;;;;;;16.75;7.07;;;23.40;99.90;;;;;;5064347;28;20043;-80
2022/07/13 08:31:20;;;;;;;8.90;6.72;;;23.40;99.90;;;;;;5060435;28;20395;-80
2022/07/13 08:39:17;;;;;;;13.13;6.38;;;23.70;99.90;;;;;;5069617;28;20040;-80
2022/07/13 08:41:43;;;;;;;9.18;5.97;;;23.90;99.90;;;;;;5066419;28;20040;-80
2022/07/13 08:44:09;;;;;;;10.35;6.63;;;24.10;99.90;;;;;;5049533;28;20118;-80
2022/07/13 08:46:35;;;;;;;9.32;6.22;;;24.30;99.90;;;;;;5079219;28;20551;-80
2022/07/13 08:49:01;;;;;;;10.70;6.15;;;24.50;99.90;;;;;;5065030;28;20060;-80
2022/07/13 08:51:29;;;;;;;7.72;5.93;;;24.60;99.90;;;;;;5079194;28;20067;-79
2022/07/13 08:53:55;;;;;;;7.18;5.50;;;24.80;99.90;;;;;;5094752;28;20042;-79
2022/07/13 08:56:21;;;;;;;9.05;5.82;;;25.00;99.90;;;;;;5082798;28;20122;-80
2022/07/13 08:58:47;;;;;;;7.93;5.57;;;25.20;99.90;;;;;;5087027;28;20116;-80
2022/07/13 09:01:14;;;;;;;7.32;5.80;;;25.30;99.90;;;;;;5075918;28;20505;-80
2022/07/13 09:03:40;;;;;;;10.10;6.95;;;25.50;99.90;;;;;;5096738;28;20035;-85
2022/07/13 09:06:06;;;;;;;6.97;5.45;;;25.60;99.90;;;;;;5091517;28;20036;-82
2022/07/13 09:08:42;;;;;;;7.47;5.25;;;25.70;99.90;;;;;;5068352;28;20456;-83
2022/07/13 09:11:08;;;;;;;7.05;5.90;;;25.80;99.90;;;;;;5091537;28;20447;-81
2022/07/13 09:13:36;;;;;;;8.75;4.90;;;26.00;99.90;;;;;;5062006;28;20080;-82
2022/07/13 09:16:17;;;;;;;7.82;5.43;;;26.00;99.90;;;;;;5072587;28;20070;-83
2022/07/13 09:18:54;;;;;;;9.13;5.38;;;26.10;99.90;;;;;;5074877;28;20032;-82
2022/07/13 09:21:22;;;;;;;11.63;5.38;;;26.20;99.90;;;;;;5092191;28;20039;-83
2022/07/13 09:23:56;;;;;;;8.52;5.85;;;26.30;99.90;;;;;;5078542;28;20042;-83
2022/07/13 09:26:22;;;;;;;6.88;5.28;;;26.40;99.90;;;;;;5078898;28;20032;-85
2022/07/13 09:28:50;;;;;;;6.95;5.10;;;26.50;99.90;;;;;;5057910;28;20039;-85
2022/07/13 09:31:17;;;;;;;7.05;5.60;;;26.50;99.90;;;;;;5084679;28;20046;-83
2022/07/13 09:33:45;;;;;;;7.63;5.57;;;26.50;99.90;;;;;;5071641;28;20043;-84
2022/07/13 09:36:15;;;;;;;9.80;5.10;;;26.50;99.90;;;;;;5079748;28;20072;-85
2022/07/13 09:38:46;;;;;;;7.45;5.07;;;26.60;99.90;;;;;;5059139;28;20119;-84
2022/07/13 09:41:18;;;;;;;13.85;5.85;;;26.60;99.90;;;;;;5071111;28;20457;-83
2022/07/13 09:46:54;;;;;;;16.42;6.30;;;26.70;99.80;;;;;;5082890;28;20070;-85
2022/07/13 09:49:30;;;;;;;7.18;5.55;;;26.80;99.90;;;;;;5063515;28;20133;-85
2022/07/13 09:51:57;;;;;;;9.30;5.57;;;26.90;99.90;;;;;;5065170;28;20052;-84
2022/07/13 09:54:28;;;;;;;6.00;5.38;;;27.00;99.90;;;;;;5062794;28;20176;-84
2022/07/13 09:56:58;;;;;;;7.05;5.78;;;27.10;99.90;;;;;;5082954;28;20060;-86
2022/07/13 09:59:25;;;;;;;7.65;5.65;;;27.20;99.90;;;;;;5057769;28;20032;-86
2022/07/13 10:01:51;;;;;;;7.75;5.97;;;27.30;99.90;;;;;;5062263;28;20044;-86
2022/07/13 10:04:18;;;;;;;8.18;5.47;;;27.30;99.60;;;;;;5071401;28;20051;-84
2022/07/13 10:06:44;;;;;;;7.55;5.55;;;27.30;99.40;;;;;;5067456;28;20409;-86
2022/07/13 10:09:10;;;;;;;8.00;5.03;;;27.30;99.30;;;;;;5057610;28;20075;-85
2022/07/13 10:11:36;;;;;;;8.40;5.95;;;27.40;99.60;;;;;;5067006;28;20046;-84
2022/07/13 10:14:04;;;;;;;7.90;5.53;;;27.50;99.30;;;;;;5074502;28;20135;-84
2022/07/13 10:16:31;;;;;;;6.65;5.03;;;27.50;99.00;;;;;;5083030;28;20531;-85
2022/07/13 10:19:03;;;;;;;7.65;5.72;;;27.60;99.10;;;;;;5057352;28;20451;-86
2022/07/13 10:22:00;;;;;;;8.82;5.30;;;27.70;99.40;;;;;;5071491;28;20047;-85
2022/07/13 10:24:27;;;;;;;8.75;4.70;;;27.80;99.20;;;;;;5078787;28;20562;-85
2022/07/13 10:27:26;;;;;;;8.55;4.82;;;27.90;99.20;;;;;;5046078;28;20036;-85
2022/07/13 10:30:21;;;;;;;7.35;4.35;;;28.00;99.30;;;;;;5080829;28;20052;-85
2022/07/13 10:32:47;;;;;;;8.55;4.18;;;28.10;98.90;;;;;;5077771;28;20054;-85
2022/07/13 10:35:16;;;;;;;7.32;4.88;;;28.30;98.90;;;;;;5085257;28;20043;-87
2022/07/13 10:38:03;;;;;;;7.07;5.03;;;28.00;97.90;;;;;;5069752;28;20044;-85
2022/07/13 10:40:31;;;;;;;5.78;4.75;;;28.00;97.70;;;;;;5057729;28;20122;-86
2022/07/13 10:42:57;;;;;;;5.50;5.00;;;27.90;98.10;;;;;;5079357;28;20044;-86
2022/07/13 10:48:06;;;;;;;7.38;3.88;;;27.60;97.60;;;;;;5081992;28;20040;-83
2022/07/13 10:50:44;;;;;;;5.63;4.00;;;27.60;98.20;;;;;;5067491;28;20505;-85
2022/07/13 10:53:10;;;;;;;5.03;3.58;;;27.70;97.50;;;;;;5053601;28;20149;-84
2022/07/13 10:55:45;;;;;;;6.88;3.72;;;27.90;97.70;;;;;;5068364;28;20540;-84
2022/07/13 10:58:30;;;;;;;7.70;3.72;;;28.10;98.10;;;;;;5069440;28;20028;-84
2022/07/13 11:00:57;;;;;;;3.80;3.20;;;28.20;97.50;;;;;;5056450;28;20397;-83
2022/07/13 11:03:27;;;;;;;5.80;3.15;;;27.90;96.40;;;;;;5065131;28;20035;-85
2022/07/13 11:06:06;;;;;;;4.13;3.33;;;27.80;96.60;;;;;;5061460;28;20044;-86
2022/07/13 11:08:33;;;;;;;6.43;3.85;;;28.00;96.50;;;;;;5053503;28;20500;-85
2022/07/13 11:11:16;;;;;;;6.97;3.88;;;28.00;96.70;;;;;;5069954;28;20450;-83
2022/07/13 11:13:46;;;;;;;5.30;3.45;;;28.10;96.40;;;;;;5062647;28;20037;-85
2022/07/13 11:16:13;;;;;;;4.10;3.03;;;28.10;96.80;;;;;;5072110;28;20040;-85
2022/07/13 11:18:41;;;;;;;3.40;3.10;;;28.00;96.50;;;;;;5063216;28;20070;-81
2022/07/13 11:21:16;;;;;;;8.43;3.55;;;28.00;96.50;;;;;;5073288;28;20036;-84
2022/07/13 11:26:47;;;;;;;5.65;2.92;;;28.00;95.70;;;;;;5089800;28;20040;-83
2022/07/13 11:29:18;;;;;;;7.47;3.25;;;28.20;95.90;;;;;;5059670;28;20508;-82
2022/07/13 11:31:45;;;;;;;7.57;3.55;;;28.40;95.80;;;;;;5058217;28;20047;-84
2022/07/13 11:34:11;;;;;;;7.53;2.75;;;28.60;95.60;;;;;;5067070;28;20089;-84
2022/07/13 11:36:40;;;;;;;3.92;2.72;;;28.80;95.30;;;;;;5078852;28;20114;-83
2022/07/13 11:39:28;;;;;;;4.47;2.65;;;28.50;93.90;;;;;;5066722;28;20041;-84
2022/07/13 11:41:56;;;;;;;6.88;3.20;;;28.50;93.10;;;;;;5052518;28;20036;-83
2022/07/13 11:44:31;;;;;;;6.90;2.88;;;28.30;93.50;;;;;;5049327;28;20040;-82
2022/07/13 11:47:03;;;;;;;10.05;2.92;;;28.00;92.40;;;;;;5082914;28;20520;-83
2022/07/13 11:49:41;;;;;;;4.72;2.92;;;27.90;93.10;;;;;;5081831;28;20044;-82
2022/07/13 11:52:06;;;;;;;4.45;2.78;;;27.80;93.60;;;;;;5092627;28;20072;-83
2022/07/13 11:54:32;;;;;;;5.55;2.70;;;27.60;93.80;;;;;;5077755;28;20101;-84
2022/07/13 11:56:58;;;;;;;17.35;3.42;;;27.60;93.60;;;;;;5043848;28;20032;-83
2022/07/13 11:59:42;;;;;;;3.00;2.28;;;27.70;93.80;;;;;;5066411;28;20505;-83
2022/07/13 12:02:14;;;;;;;2.50;2.30;;;27.80;92.10;;;;;;5085277;28;20493;-84
2022/07/13 12:04:40;;;;;;;;;;;27.90;93.00;;;;;;5079741;28;20048;-84
2022/07/13 12:07:16;;;;;;;2.60;1.98;;;27.90;91.30;;;;;;5069390;28;19916;-83
2022/07/13 12:09:53;;;;;;;5.80;2.78;;;27.80;91.70;;;;;;5062343;28;20290;-83
2022/07/13 12:12:40;;;;;;;3.05;2.00;;;27.80;91.90;;;;;;5076963;28;20469;-83
2022/07/13 12:15:07;;;;;;;4.32;2.35;;;27.80;92.00;;;;;;5048007;28;20051;-83
2022/07/13 12:17:48;;;;;;;4.68;2.40;;;28.10;92.30;;;;;;5082951;28;20046;-84
2022/07/13 12:20:19;;;;;;;3.78;2.33;;;28.40;91.90;;;;;;5040575;28;20040;-83
2022/07/13 12:22:57;;;;;;;6.97;2.42;;;28.30;91.40;;;;;;5052465;28;20040;-83
2022/07/13 12:25:32;;;;;;;3.08;2.15;;;28.20;91.30;;;;;;5052536;28;20044;-82
2022/07/13 12:28:01;;;;;;;7.82;2.70;;;28.10;91.80;;;;;;5056524;28;20072;-82
2022/07/13 12:30:31;;;;;;;4.68;2.40;;;28.10;91.60;;;;;;5055354;28;20417;-83
2022/07/13 12:33:03;;;;;;;3.15;2.28;;;28.10;91.30;;;;;;5074196;28;20098;-81
2022/07/13 12:35:35;;;;;;;3.55;2.38;;;28.10;91.30;;;;;;5054851;28;20106;-82
2022/07/13 12:38:05;;;;;;;3.95;2.20;;;28.30;91.30;;;;;;5067660;28;20044;-82
2022/07/13 12:40:40;;;;;;;3.13;2.10;;;28.50;91.50;;;;;;5069823;28;20039;-83
2022/07/13 12:43:23;;;;;;;3.47;2.30;;;28.80;92.10;;;;;;5065788;28;20036;-84
2022/07/13 12:46:00;;;;;;;6.32;2.25;;;29.00;90.10;;;;;;5073662;28;20051;-84
2022/07/13 12:48:30;;;;;;;2.95;2.30;;;29.00;91.10;;;;;;5060783;28;20505;-83
2022/07/13 12:51:07;;;;;;;2.65;2.45;;;29.00;90.60;;;;;;5052109;28;20036;-84
2022/07/13 12:53:51;;;;;;;5.28;2.80;;;29.00;91.30;;;;;;5035603;28;20511;-81
2022/07/13 12:56:23;;;;;;;4.25;2.70;;;29.00;91.90;;;;;;5086147;28;20536;-82
2022/07/13 12:58:54;;;;;;;5.18;2.45;;;28.80;91.40;;;;;;5058502;28;20566;-82
2022/07/13 13:01:29;;;;;;;7.25;2.85;;;28.60;91.30;;;;;;5074338;28;20055;-82
2022/07/13 13:03:55;;;;;;;6.00;2.50;;;28.40;91.80;;;;;;5074116;28;20336;-83